createdAt,value
2022-09-15T00:00:55.426Z,15.23
2022-09-15T00:03:22.559Z,15.31
2022-09-15T00:05:49.296Z,14.43
2022-09-15T00:08:15.949Z,15.85
2022-09-15T00:10:53.448Z,15.97
2022-09-15T00:13:20.309Z,15.79
2022-09-15T00:15:47.099Z,16.00
2022-09-15T00:18:13.701Z,15.55
2022-09-15T00:20:43.942Z,15.92
2022-09-15T00:23:11.460Z,15.87
2022-09-15T00:25:45.958Z,16.00
2022-09-15T00:28:13.216Z,15.92
2022-09-15T00:30:44.172Z,16.17
2022-09-15T00:33:11.635Z,15.77
2022-09-15T00:35:42.658Z,15.80
2022-09-15T00:38:09.709Z,15.96
2022-09-15T00:40:57.066Z,16.48
2022-09-15T00:43:49.744Z,16.50
2022-09-15T00:46:17.377Z,16.31
2022-09-15T00:48:47.551Z,15.87
2022-09-15T00:51:15.625Z,16.45
2022-09-15T00:53:42.413Z,16.57
2022-09-15T00:56:09.509Z,16.39
2022-09-15T00:58:52.947Z,16.31
2022-09-15T01:01:19.754Z,14.93
2022-09-15T01:03:46.612Z,16.09
2022-09-15T01:06:20.343Z,16.63
2022-09-15T01:08:52.723Z,16.01
2022-09-15T01:11:19.286Z,16.44
2022-09-15T01:13:45.885Z,14.11
2022-09-15T01:16:33.289Z,16.69
2022-09-15T01:19:18.041Z,16.71
2022-09-15T01:22:17.423Z,16.67
2022-09-15T01:24:53.067Z,16.74
2022-09-15T01:27:44.371Z,16.73
2022-09-15T01:30:23.863Z,16.53
2022-09-15T01:33:12.047Z,16.78
2022-09-15T01:36:01.713Z,16.78
2022-09-15T01:38:49.337Z,16.55
2022-09-15T01:41:46.689Z,16.76
2022-09-15T01:44:15.713Z,16.41
2022-09-15T01:46:47.062Z,16.84
2022-09-15T01:51:43.998Z,16.15
2022-09-15T01:54:10.722Z,16.59
2022-09-15T01:56:38.081Z,16.77
2022-09-15T01:59:04.989Z,16.75
2022-09-15T02:01:48.051Z,16.96
2022-09-15T02:04:18.306Z,16.58
2022-09-15T02:06:53.355Z,16.96
2022-09-15T02:09:28.133Z,15.98
2022-09-15T02:11:58.476Z,16.95
2022-09-15T02:14:44.828Z,16.13
2022-09-15T02:17:14.489Z,16.88
2022-09-15T02:19:41.878Z,16.56
2022-09-15T02:22:23.481Z,16.77
2022-09-15T02:25:13.156Z,16.66
2022-09-15T02:27:53.272Z,16.21
2022-09-15T02:30:20.281Z,16.32
2022-09-15T02:32:57.369Z,16.34
2022-09-15T02:35:25.034Z,16.52
2022-09-15T02:37:51.607Z,16.65
2022-09-15T02:40:18.575Z,16.27
2022-09-15T02:42:56.161Z,16.57
2022-09-15T02:45:24.239Z,16.50
2022-09-15T02:47:51.048Z,16.68
2022-09-15T02:50:18.137Z,16.87
2022-09-15T02:52:44.894Z,16.49
2022-09-15T02:55:11.497Z,16.69
2022-09-15T02:57:38.117Z,16.45
2022-09-15T03:00:14.524Z,16.17
2022-09-15T03:02:42.258Z,16.66
2022-09-15T03:05:09.366Z,15.39
2022-09-15T03:07:38.143Z,16.81
2022-09-15T03:10:08.433Z,16.57
2022-09-15T03:12:49.435Z,16.52
2022-09-15T03:15:17.654Z,16.47
2022-09-15T03:17:44.800Z,16.61
2022-09-15T03:20:12.631Z,16.37
2022-09-15T03:22:39.228Z,16.74
2022-09-15T03:25:06.634Z,16.57
2022-09-15T03:27:36.185Z,16.30
2022-09-15T03:30:03.240Z,16.84
2022-09-15T03:32:29.873Z,16.51
2022-09-15T03:34:58.581Z,16.82
2022-09-15T03:37:25.527Z,16.68
2022-09-15T03:39:52.156Z,16.63
2022-09-15T03:42:18.806Z,16.70
2022-09-15T03:44:45.392Z,16.68
2022-09-15T03:47:11.951Z,16.61
2022-09-15T03:49:38.903Z,16.70
2022-09-15T03:52:05.585Z,16.37
2022-09-15T03:54:32.218Z,16.52
2022-09-15T03:56:58.979Z,15.93
2022-09-15T03:59:25.571Z,15.32
2022-09-15T04:01:52.145Z,16.75
2022-09-15T04:04:18.727Z,15.77
2022-09-15T04:06:45.332Z,16.69
2022-09-15T04:09:12.184Z,16.27
2022-09-15T04:11:39.581Z,16.51
2022-09-15T04:14:06.124Z,16.63
2022-09-15T04:16:32.873Z,16.85
2022-09-15T04:18:59.684Z,16.67
2022-09-15T04:21:26.723Z,15.35
2022-09-15T04:23:54.064Z,16.68
2022-09-15T04:26:22.836Z,16.68
2022-09-15T04:28:49.415Z,16.56
2022-09-15T04:31:16.513Z,16.61
2022-09-15T04:33:43.358Z,16.50
2022-09-15T04:36:15.308Z,16.26
2022-09-15T04:38:42.566Z,16.00
2022-09-15T04:41:09.563Z,16.70
2022-09-15T04:43:36.301Z,16.55
2022-09-15T04:46:02.916Z,16.31
2022-09-15T04:48:30.512Z,16.53
2022-09-15T04:51:01.875Z,16.21
2022-09-15T04:53:28.683Z,16.23
2022-09-15T04:56:04.873Z,16.43
2022-09-15T04:58:32.014Z,16.34
2022-09-15T05:00:59.075Z,16.27
2022-09-15T05:03:25.740Z,15.44
2022-09-15T05:05:52.371Z,16.86
2022-09-15T05:08:19.553Z,16.56
2022-09-15T05:10:46.140Z,16.76
2022-09-15T05:13:12.809Z,16.78
2022-09-15T05:15:39.825Z,16.42
2022-09-15T05:18:06.666Z,16.32
2022-09-15T05:20:33.268Z,16.75
2022-09-15T05:22:59.849Z,16.44
2022-09-15T05:25:26.468Z,16.76
2022-09-15T05:27:53.187Z,16.76
2022-09-15T05:33:06.488Z,17.04
2022-09-15T05:35:33.061Z,16.90
2022-09-15T05:37:59.797Z,16.62
2022-09-15T05:40:26.859Z,16.60
2022-09-15T05:42:53.438Z,17.00
2022-09-15T05:45:19.996Z,16.98
2022-09-15T05:47:46.624Z,16.61
2022-09-15T05:50:14.746Z,16.72
2022-09-15T05:52:41.315Z,16.82
2022-09-15T05:55:08.378Z,16.93
2022-09-15T05:57:34.958Z,16.41
2022-09-15T06:00:01.903Z,16.23
2022-09-15T06:02:28.600Z,16.86
2022-09-15T06:04:55.371Z,16.94
2022-09-15T06:07:21.933Z,16.71
2022-09-15T06:09:48.750Z,15.70
2022-09-15T06:12:17.769Z,17.05
2022-09-15T06:14:45.904Z,17.02
2022-09-15T06:17:12.603Z,16.75
2022-09-15T06:19:39.170Z,16.94
2022-09-15T06:22:05.915Z,17.00
2022-09-15T06:24:32.491Z,17.11
2022-09-15T06:26:59.084Z,16.44
2022-09-15T06:29:25.654Z,16.81
2022-09-15T06:31:52.343Z,17.04
2022-09-15T06:34:18.944Z,17.14
2022-09-15T06:36:45.614Z,16.92
2022-09-15T06:39:12.243Z,16.85
2022-09-15T06:42:00.845Z,16.87
2022-09-15T06:44:25.433Z,16.90
2022-09-15T06:46:52.021Z,16.15
2022-09-15T06:49:19.181Z,16.94
2022-09-15T06:51:45.785Z,16.83
2022-09-15T06:54:12.725Z,17.02
2022-09-15T06:56:39.313Z,16.65
2022-09-15T06:59:05.943Z,16.73
2022-09-15T07:01:32.734Z,16.98
2022-09-15T07:04:00.983Z,16.78
2022-09-15T07:06:28.626Z,16.78
2022-09-15T07:08:55.197Z,16.67
2022-09-15T07:11:21.805Z,16.04
2022-09-15T07:13:49.190Z,16.38
2022-09-15T07:16:16.099Z,16.57
2022-09-15T07:18:43.694Z,17.17
2022-09-15T07:21:15.263Z,16.86
2022-09-15T07:23:42.011Z,15.56
2022-09-15T07:26:17.161Z,16.40
2022-09-15T07:28:45.206Z,17.07
2022-09-15T07:31:13.428Z,15.36
2022-09-15T07:33:47.098Z,17.10
2022-09-15T07:36:13.861Z,17.02
2022-09-15T07:38:42.428Z,16.69
2022-09-15T07:41:13.948Z,16.64
2022-09-15T07:43:40.757Z,17.07
2022-09-15T07:46:08.430Z,16.84
2022-09-15T07:48:35.108Z,16.79
2022-09-15T07:51:01.994Z,16.98
2022-09-15T07:53:29.466Z,17.28
2022-09-15T07:55:56.227Z,16.91
2022-09-15T07:58:23.026Z,17.03
2022-09-15T08:00:49.726Z,17.03
2022-09-15T08:03:16.431Z,16.87
2022-09-15T08:05:45.584Z,17.03
2022-09-15T08:08:12.548Z,17.27
2022-09-15T08:10:40.285Z,16.98
2022-09-15T08:13:06.898Z,16.12
2022-09-15T08:15:36.366Z,17.08
2022-09-15T08:18:03.737Z,16.91
2022-09-15T08:20:31.522Z,16.88
2022-09-15T08:22:58.635Z,16.39
2022-09-15T08:25:25.238Z,17.14
2022-09-15T08:27:53.983Z,15.93
2022-09-15T08:30:21.352Z,17.26
2022-09-15T08:32:48.492Z,16.96
2022-09-15T08:35:15.998Z,16.91
2022-09-15T08:37:42.578Z,16.94
2022-09-15T08:40:21.386Z,17.14
2022-09-15T08:42:48.723Z,17.28
2022-09-15T08:45:43.056Z,16.64
2022-09-15T08:48:10.442Z,17.25
2022-09-15T08:50:40.264Z,15.58
2022-09-15T08:53:19.101Z,16.89
2022-09-15T08:55:50.468Z,16.99
2022-09-15T08:58:21.816Z,16.63
2022-09-15T09:00:51.800Z,16.98
2022-09-15T09:03:37.461Z,17.53
2022-09-15T09:06:19.084Z,17.54
2022-09-15T09:09:01.359Z,17.58
2022-09-15T09:11:30.751Z,17.61
2022-09-15T09:14:17.481Z,17.64
2022-09-15T09:16:56.158Z,17.65
2022-09-15T09:19:47.874Z,17.65
2022-09-15T09:22:16.570Z,16.73
2022-09-15T09:24:53.760Z,17.28
2022-09-15T09:27:22.426Z,17.57
2022-09-15T09:29:50.640Z,16.36
2022-09-15T09:32:25.596Z,17.21
2022-09-15T09:35:13.992Z,17.23
2022-09-15T09:37:40.572Z,17.16
2022-09-15T09:40:07.941Z,17.23
2022-09-15T09:42:37.193Z,17.21
2022-09-15T09:45:05.168Z,17.36
2022-09-15T09:47:31.727Z,17.05
2022-09-15T09:49:59.456Z,17.28
2022-09-15T09:52:36.622Z,17.23
2022-09-15T09:55:20.210Z,17.24
2022-09-15T09:57:48.975Z,17.15
2022-09-15T10:00:36.535Z,17.25
2022-09-15T10:03:19.794Z,17.32
2022-09-15T10:06:00.238Z,16.97
2022-09-15T10:08:26.887Z,17.21
2022-09-15T10:10:54.226Z,17.66
2022-09-15T10:13:21.326Z,17.43
2022-09-15T10:15:58.082Z,17.46
2022-09-15T10:18:30.836Z,17.31
2022-09-15T10:20:57.501Z,17.25
2022-09-15T10:23:25.993Z,17.61
2022-09-15T10:26:00.580Z,17.71
2022-09-15T10:28:27.341Z,17.68
2022-09-15T10:31:06.942Z,17.26
2022-09-15T10:33:37.080Z,17.62
2022-09-15T10:36:18.148Z,17.42
2022-09-15T10:38:56.746Z,17.64
2022-09-15T10:41:25.008Z,17.16
2022-09-15T10:44:17.818Z,17.67
2022-09-15T10:47:10.217Z,17.69
2022-09-15T10:49:49.922Z,17.26
2022-09-15T10:52:25.352Z,17.74
2022-09-15T10:54:51.837Z,17.75
2022-09-15T10:57:48.988Z,17.30
2022-09-15T11:00:23.408Z,17.55
2022-09-15T11:03:11.392Z,17.88
2022-09-15T11:06:05.990Z,17.88
2022-09-15T11:08:53.352Z,17.89
2022-09-15T11:11:44.517Z,17.63
2022-09-15T11:14:17.409Z,17.87
2022-09-15T11:17:00.564Z,17.67
2022-09-15T11:19:53.335Z,17.81
2022-09-15T11:22:41.212Z,17.53
2022-09-15T11:25:22.520Z,17.63
2022-09-15T11:27:54.050Z,17.84
2022-09-15T11:30:22.435Z,16.96
2022-09-15T11:33:15.375Z,17.87
2022-09-15T11:35:48.072Z,17.86
2022-09-15T11:38:53.059Z,17.83
2022-09-15T11:41:22.695Z,17.35
2022-09-15T11:44:06.427Z,17.30
2022-09-15T11:46:43.140Z,17.69
2022-09-15T11:49:17.500Z,17.53
2022-09-15T11:51:50.690Z,16.94
2022-09-15T11:54:31.588Z,17.48
2022-09-15T11:56:58.420Z,17.10
2022-09-15T11:59:46.806Z,17.43
2022-09-15T12:02:25.538Z,17.39
2022-09-15T12:05:15.032Z,17.39
2022-09-15T12:08:05.619Z,17.01
2022-09-15T12:10:36.781Z,17.04
2022-09-15T12:13:03.378Z,16.83
2022-09-15T12:15:29.935Z,17.03
2022-09-15T12:18:37.155Z,16.92
2022-09-15T12:21:23.756Z,17.10
2022-09-15T12:24:16.916Z,17.05
2022-09-15T12:26:46.419Z,17.04
2022-09-15T12:29:22.064Z,17.10
2022-09-15T12:31:48.616Z,16.83
2022-09-15T12:34:38.404Z,17.14
2022-09-15T12:37:14.694Z,16.48
2022-09-15T12:39:43.184Z,16.85
2022-09-15T12:42:21.505Z,16.31
2022-09-15T12:44:50.200Z,16.50
2022-09-15T12:47:18.020Z,15.81
2022-09-15T12:49:46.196Z,16.90
2022-09-15T12:52:12.799Z,16.99
2022-09-15T12:54:41.294Z,16.16
2022-09-15T12:57:08.126Z,17.11
2022-09-15T12:59:34.778Z,16.81
2022-09-15T13:02:02.604Z,16.85
2022-09-15T13:04:55.717Z,16.98
2022-09-15T13:07:22.921Z,16.59
2022-09-15T13:10:08.255Z,17.06
2022-09-15T13:12:36.602Z,16.73
2022-09-15T13:15:04.405Z,16.83
2022-09-15T13:17:34.181Z,16.74
2022-09-15T13:20:02.245Z,16.17
2022-09-15T13:22:31.366Z,17.01
2022-09-15T13:25:01.828Z,16.61
2022-09-15T13:27:36.423Z,17.08
2022-09-15T13:30:26.082Z,17.04
2022-09-15T13:39:21.271Z,17.00
2022-09-15T13:42:07.064Z,16.86
2022-09-15T13:45:04.487Z,16.82
2022-09-15T13:47:41.443Z,16.46
2022-09-15T13:50:32.457Z,16.63
2022-09-15T13:53:30.682Z,16.11
2022-09-15T13:56:08.978Z,15.77
2022-09-15T14:01:22.604Z,16.11
2022-09-15T14:03:57.888Z,15.69
2022-09-15T14:06:25.005Z,15.89
2022-09-15T14:08:54.088Z,15.63
2022-09-15T14:11:26.885Z,15.95
2022-09-15T14:13:53.570Z,15.95
2022-09-15T14:16:36.121Z,16.15
2022-09-15T14:19:34.555Z,16.16
2022-09-15T14:22:02.550Z,15.52
2022-09-15T14:24:30.644Z,15.99
2022-09-15T14:27:03.502Z,15.87
2022-09-15T14:29:30.981Z,15.86
2022-09-15T14:32:00.326Z,15.63
2022-09-15T14:34:27.470Z,15.61
2022-09-15T14:37:03.402Z,15.44
2022-09-15T14:39:30.110Z,15.57
2022-09-15T14:41:56.762Z,15.33
2022-09-15T14:47:26.418Z,15.67
2022-09-15T14:50:29.028Z,16.12
2022-09-15T14:53:07.410Z,15.68
2022-09-15T14:55:38.054Z,15.88
2022-09-15T14:58:16.511Z,15.50
2022-09-15T15:01:01.596Z,15.65
2022-09-15T15:03:58.506Z,16.00
2022-09-15T15:06:52.234Z,15.97
2022-09-15T15:09:32.458Z,15.57
2022-09-15T15:12:24.606Z,15.52
2022-09-15T15:14:52.788Z,14.36
2022-09-15T15:17:38.534Z,15.38
2022-09-15T15:20:08.062Z,16.09
2022-09-15T15:22:34.840Z,16.08
2022-09-15T15:25:01.424Z,14.45
2022-09-15T15:27:34.202Z,16.13
2022-09-15T15:30:23.915Z,16.19
2022-09-15T15:32:50.983Z,15.95
2022-09-15T15:35:17.912Z,16.23
2022-09-15T15:37:44.494Z,15.37
2022-09-15T15:40:17.335Z,15.72
2022-09-15T15:42:57.751Z,16.30
2022-09-15T15:45:27.930Z,15.30
2022-09-15T15:47:54.777Z,16.10
2022-09-15T15:50:26.218Z,15.57
2022-09-15T15:52:52.929Z,15.80
2022-09-15T15:55:24.123Z,16.22
2022-09-15T15:57:52.485Z,15.06
2022-09-15T16:00:30.528Z,15.80
2022-09-15T16:02:57.327Z,15.69
2022-09-15T16:05:27.517Z,15.82
2022-09-15T16:07:54.247Z,15.91
2022-09-15T16:10:23.427Z,15.97
2022-09-15T16:12:50.514Z,15.68
2022-09-15T16:15:18.897Z,15.80
2022-09-15T16:17:46.873Z,15.66
2022-09-15T16:20:15.921Z,16.04
2022-09-15T16:22:43.385Z,15.44
2022-09-15T16:25:18.405Z,15.39
2022-09-15T16:27:45.012Z,15.45
2022-09-15T16:30:14.336Z,15.81
2022-09-15T16:32:41.350Z,15.53
2022-09-15T16:35:49.637Z,15.51
2022-09-15T16:38:16.219Z,15.31
2022-09-15T16:40:42.882Z,15.65
2022-09-15T16:43:10.516Z,15.47
2022-09-15T16:45:40.589Z,15.29
2022-09-15T16:48:08.174Z,15.72
2022-09-15T16:50:35.143Z,15.31
2022-09-15T16:53:01.761Z,14.95
2022-09-15T16:55:47.183Z,15.78
2022-09-15T16:58:14.272Z,15.35
2022-09-15T17:00:42.568Z,15.16
2022-09-15T17:03:09.219Z,15.31
2022-09-15T17:05:36.966Z,14.74
2022-09-15T17:08:04.668Z,15.22
2022-09-15T17:10:31.567Z,14.61
2022-09-15T17:12:58.262Z,14.10
2022-09-15T17:15:28.565Z,14.37
2022-09-15T17:17:56.155Z,15.44
2022-09-15T17:20:23.465Z,15.54
2022-09-15T17:22:50.120Z,14.85
2022-09-15T17:25:39.985Z,14.95
2022-09-15T17:28:06.550Z,14.72
2022-09-15T17:30:33.146Z,14.71
2022-09-15T17:33:02.751Z,15.51
2022-09-15T17:35:32.164Z,15.23
2022-09-15T17:37:58.732Z,15.25
2022-09-15T17:40:25.433Z,15.35
2022-09-15T17:42:52.018Z,15.39
2022-09-15T17:45:23.839Z,15.03
2022-09-15T17:47:50.711Z,14.53
2022-09-15T17:50:18.267Z,15.20
2022-09-15T17:52:45.300Z,15.10
2022-09-15T17:55:31.573Z,15.47
2022-09-15T17:57:59.897Z,15.02
2022-09-15T18:00:28.391Z,15.23
2022-09-15T18:02:56.415Z,15.36
2022-09-15T18:05:34.120Z,14.84
2022-09-15T18:08:03.779Z,15.30
2022-09-15T18:10:34.443Z,14.88
2022-09-15T18:13:02.806Z,14.91
2022-09-15T18:15:30.853Z,15.15
2022-09-15T18:18:02.832Z,15.11
2022-09-15T18:20:30.856Z,15.07
2022-09-15T18:22:57.520Z,15.14
2022-09-15T18:25:32.448Z,14.98
2022-09-15T18:28:00.842Z,15.30
2022-09-15T18:30:29.550Z,15.04
2022-09-15T18:32:56.221Z,15.24
2022-09-15T18:35:22.861Z,15.01
2022-09-15T18:37:50.609Z,13.66
2022-09-15T18:40:17.993Z,15.05
2022-09-15T18:42:44.715Z,14.43
2022-09-15T18:45:13.988Z,14.46
2022-09-15T18:47:42.530Z,15.00
2022-09-15T18:50:10.220Z,14.77
2022-09-15T18:52:40.438Z,13.90
2022-09-15T18:55:08.543Z,14.68
2022-09-15T18:57:45.480Z,14.88
2022-09-15T19:00:17.286Z,14.23
2022-09-15T19:02:44.102Z,14.44
2022-09-15T19:05:15.652Z,14.27
2022-09-15T19:07:43.110Z,14.40
2022-09-15T19:10:11.022Z,14.34
2022-09-15T19:12:37.981Z,14.46
2022-09-15T19:15:10.609Z,14.04
2022-09-15T19:17:38.289Z,14.03
2022-09-15T19:20:06.720Z,14.30
2022-09-15T19:22:33.603Z,14.13
2022-09-15T19:25:00.331Z,14.32
2022-09-15T19:27:26.902Z,14.22
2022-09-15T19:29:53.484Z,13.91
2022-09-15T19:32:20.985Z,13.94
2022-09-15T19:34:47.725Z,13.76
2022-09-15T19:37:18.653Z,13.39
2022-09-15T19:39:45.746Z,14.13
2022-09-15T19:42:12.737Z,13.99
2022-09-15T19:44:40.480Z,14.09
2022-09-15T19:47:07.055Z,13.85
2022-09-15T19:49:33.772Z,14.13
2022-09-15T19:52:00.344Z,13.90
2022-09-15T19:54:27.895Z,14.00
2022-09-15T19:56:54.552Z,13.93
2022-09-15T19:59:21.133Z,13.95
2022-09-15T20:01:47.845Z,13.96
2022-09-15T20:06:58.991Z,12.99
2022-09-15T20:09:26.291Z,14.13
2022-09-15T20:11:53.073Z,12.76
2022-09-15T20:14:19.795Z,14.02
2022-09-15T20:16:46.508Z,13.93
2022-09-15T20:19:13.259Z,14.27
2022-09-15T20:21:55.576Z,13.44
2022-09-15T20:24:22.343Z,13.20
2022-09-15T20:26:48.951Z,12.90
2022-09-15T20:29:15.679Z,14.16
2022-09-15T20:31:42.623Z,14.02
2022-09-15T20:34:09.276Z,14.03
2022-09-15T20:36:36.849Z,13.60
2022-09-15T20:39:04.609Z,14.04
2022-09-15T20:41:33.964Z,14.23
2022-09-15T20:44:00.569Z,14.01
2022-09-15T20:46:29.260Z,14.04
2022-09-15T20:48:55.990Z,13.96
2022-09-15T20:51:27.887Z,14.19
2022-09-15T20:53:55.794Z,13.93
2022-09-15T20:56:25.427Z,13.96
2022-09-15T20:58:56.790Z,14.15
2022-09-15T21:01:24.923Z,12.88
2022-09-15T21:03:51.839Z,13.75
2022-09-15T21:06:20.335Z,14.07
2022-09-15T21:08:47.881Z,13.74
2022-09-15T21:11:14.847Z,14.11
2022-09-15T21:13:42.180Z,14.19
2022-09-15T21:16:10.230Z,13.87
2022-09-15T21:18:39.237Z,13.53
2022-09-15T21:21:07.370Z,14.24
2022-09-15T21:23:41.666Z,14.00
2022-09-15T21:26:12.726Z,13.60
2022-09-15T21:28:39.407Z,14.00
2022-09-15T21:31:08.285Z,13.25
2022-09-15T21:33:42.298Z,13.84
2022-09-15T21:36:11.153Z,13.62
2022-09-15T21:38:39.350Z,13.83
2022-09-15T21:41:06.778Z,14.13
2022-09-15T21:43:37.664Z,13.93
2022-09-15T21:46:08.660Z,14.12
2022-09-15T21:48:35.528Z,14.12
2022-09-15T21:51:02.568Z,13.27
2022-09-15T21:53:29.405Z,13.80
2022-09-15T21:55:56.645Z,13.99
2022-09-15T21:58:25.946Z,13.70
2022-09-15T22:00:52.994Z,14.00
2022-09-15T22:03:19.764Z,12.94
2022-09-15T22:05:47.079Z,13.73
2022-09-15T22:08:14.641Z,13.86
2022-09-15T22:10:41.378Z,13.57
2022-09-15T22:13:09.763Z,12.97
2022-09-15T22:15:36.665Z,13.01
2022-09-15T22:18:03.631Z,13.64
2022-09-15T22:20:30.220Z,13.81
2022-09-15T22:22:56.845Z,13.82
2022-09-15T22:25:23.509Z,13.51
2022-09-15T22:27:50.255Z,13.76
2022-09-15T22:30:17.177Z,12.37
2022-09-15T22:32:43.776Z,13.29
2022-09-15T22:35:10.674Z,13.71
2022-09-15T22:37:37.322Z,12.12
2022-09-15T22:40:04.106Z,12.00
2022-09-15T22:42:30.768Z,13.65
2022-09-15T22:44:57.431Z,13.39
2022-09-15T22:47:24.130Z,13.44
2022-09-15T22:49:50.720Z,13.44
2022-09-15T22:52:17.340Z,13.29
2022-09-15T22:54:43.897Z,12.67
2022-09-15T22:57:10.465Z,12.72
2022-09-15T22:59:37.128Z,11.83
2022-09-15T23:02:03.797Z,13.02
2022-09-15T23:04:30.497Z,13.01
2022-09-15T23:06:57.133Z,13.05
2022-09-15T23:09:23.751Z,11.39
2022-09-15T23:11:50.380Z,13.19
2022-09-15T23:14:18.067Z,13.02
2022-09-15T23:16:44.705Z,12.81
2022-09-15T23:19:14.487Z,13.18
2022-09-15T23:21:41.101Z,12.52
2022-09-15T23:24:08.761Z,13.18
2022-09-15T23:26:35.438Z,13.23
2022-09-15T23:29:02.032Z,13.40
2022-09-15T23:31:28.701Z,13.02
2022-09-15T23:33:55.337Z,13.19
2022-09-15T23:36:22.040Z,12.99
2022-09-15T23:38:48.714Z,12.86
2022-09-15T23:41:15.857Z,12.60
2022-09-15T23:43:42.491Z,12.96
2022-09-15T23:46:09.234Z,11.25
2022-09-15T23:48:36.197Z,11.44
2022-09-15T23:51:02.961Z,12.26
2022-09-15T23:53:29.785Z,12.52
2022-09-15T23:55:56.465Z,12.60
2022-09-15T23:58:23.229Z,12.95
